Time;durP1;ratioP1;P1;durP2;ratioP2;P2;SDS_P1;SDS_P2;PMS_P1;PMS_P2;Temp;Humidity;BMP_temperature;BMP_pressure;BME280_temperature;BME280_humidity;BME280_pressure;Samples;Min_cycle;Max_cycle;Signal;HPM_P1;HPM_P2
2022/09/25 00:00:36;;;;;;;3.20;3.00;;;;;;;6.17;97.19;99405.09;1785268;80;21077;-79
2022/09/25 00:03:03;;;;;;;4.70;2.90;;;;;;;6.14;97.43;99402.08;1854431;77;21003;-80
2022/09/25 00:05:30;;;;;;;4.33;2.80;;;;;;;6.12;97.56;99405.63;1817519;78;21011;-79
2022/09/25 00:07:57;;;;;;;2.70;2.45;;;;;;;6.12;97.71;99404.31;1783845;80;21446;-78
2022/09/25 00:10:24;;;;;;;2.77;2.52;;;;;;;6.12;97.83;99405.17;1817352;78;21549;-80
2022/09/25 00:12:51;;;;;;;2.95;2.75;;;;;;;6.10;97.99;99407.37;1785747;80;21584;-80
2022/09/25 00:15:18;;;;;;;3.30;2.80;;;;;;;6.07;98.09;99403.51;1856419;77;21722;-80
2022/09/25 00:17:45;;;;;;;4.00;2.85;;;;;;;6.07;98.29;99403.51;1859721;77;21006;-79
2022/09/25 00:20:13;;;;;;;3.75;3.45;;;;;;;6.05;98.34;99401.38;1859512;77;21229;-79
2022/09/25 00:22:41;;;;;;;2.90;2.70;;;;;;;6.05;98.48;99413.13;1859448;77;21513;-80
2022/09/25 00:25:13;;;;;;;2.60;2.40;;;;;;;6.03;98.67;99403.16;1859591;77;21196;-80
2022/09/25 00:27:40;;;;;;;6.97;3.20;;;;;;;6.03;98.76;99407.93;1859896;77;21081;-80
2022/09/25 00:30:08;;;;;;;4.92;2.95;;;;;;;6.03;98.84;99401.86;1859632;77;20979;-79
2022/09/25 00:32:36;;;;;;;3.17;2.92;;;;;;;6.02;98.85;99403.61;1859728;77;21957;-79
2022/09/25 00:35:03;;;;;;;4.78;2.90;;;;;;;6.02;98.87;99402.31;1859978;77;21553;-80
2022/09/25 00:37:33;;;;;;;3.17;2.87;;;;;;;6.02;98.81;99401.42;1859696;77;21065;-80
2022/09/25 00:40:00;;;;;;;5.75;3.00;;;;;;;6.02;98.73;99402.73;1859578;77;21564;-79
2022/09/25 00:42:27;;;;;;;3.90;3.05;;;;;;;6.00;98.71;99400.17;1859592;77;20963;-80
2022/09/25 00:45:16;;;;;;;6.10;3.40;;;;;;;5.98;98.76;99406.30;1859483;77;21127;-80
2022/09/25 00:48:00;;;;;;;3.98;3.30;;;;;;;5.94;98.75;99406.31;1859470;77;21086;-78
2022/09/25 00:50:49;;;;;;;3.60;3.30;;;;;;;5.91;98.67;99411.59;1859559;77;21049;-80
2022/09/25 00:56:20;;;;;;;5.67;3.40;;;;;;;5.82;98.80;99405.23;1749756;78;21075;-79
2022/09/25 00:58:47;;;;;;;7.17;3.42;;;;;;;5.78;98.94;99404.84;1721410;82;21077;-79
2022/09/25 01:01:13;;;;;;;7.12;3.90;;;;;;;5.77;98.99;99410.98;1717980;83;21047;-79
2022/09/25 01:03:40;;;;;;;4.42;3.83;;;;;;;5.74;99.06;99403.19;1718437;83;21095;-79
2022/09/25 01:06:11;;;;;;;4.20;3.80;;;;;;;5.69;99.10;99401.95;1717923;82;21508;-79
2022/09/25 01:08:37;;;;;;;5.00;3.90;;;;;;;5.68;99.20;99404.17;1718304;82;21103;-78
2022/09/25 01:11:05;;;;;;;4.15;3.58;;;;;;;5.67;99.19;99405.50;1717906;82;22404;-79
2022/09/25 01:13:31;;;;;;;8.10;3.92;;;;;;;5.63;99.28;99406.41;1717890;83;21583;-79
2022/09/25 01:16:16;;;;;;;4.00;3.60;;;;;;;5.58;99.34;99409.98;1718083;82;21608;-79
2022/09/25 01:19:04;;;;;;;6.42;4.05;;;;;;;5.56;99.41;99407.84;1715202;83;21063;-79
2022/09/25 01:21:51;;;;;;;5.05;3.80;;;;;;;5.53;99.50;99412.22;1717250;82;21032;-79
2022/09/25 01:24:26;;;;;;;4.22;3.60;;;;;;;5.48;99.79;99411.01;1718103;83;21162;-80
2022/09/25 01:27:08;;;;;;;;;;;;;;;5.45;100.00;99409.75;1720853;82;21071;-80
2022/09/25 01:29:44;;;;;;;8.10;3.90;;;;;;;5.43;100.00;99411.52;1718134;82;20253;-79
2022/09/25 01:32:31;;;;;;;4.67;3.67;;;;;;;5.41;100.00;99409.36;1718290;83;21032;-79
2022/09/25 01:35:16;;;;;;;4.03;3.62;;;;;;;5.37;100.00;99409.85;1718038;83;21063;-78
2022/09/25 01:37:56;;;;;;;3.87;3.50;;;;;;;5.36;100.00;99412.48;1718329;83;21168;-78
2022/09/25 01:40:36;;;;;;;4.70;3.35;;;;;;;5.36;100.00;99407.27;1717983;83;21151;-80
2022/09/25 01:43:13;;;;;;;4.67;3.42;;;;;;;5.36;100.00;99412.48;1718220;83;21146;-80
2022/09/25 01:46:01;;;;;;;3.52;3.30;;;;;;;5.34;100.00;99403.37;1718145;82;21095;-81
2022/09/25 01:48:31;;;;;;;3.60;3.30;;;;;;;5.34;100.00;99401.21;1718380;83;21059;-80
2022/09/25 01:51:07;;;;;;;4.92;3.52;;;;;;;5.33;100.00;99408.61;1718348;83;21114;-82
2022/09/25 01:53:39;;;;;;;3.92;3.55;;;;;;;5.31;100.00;99401.25;1718140;83;21154;-81
2022/09/25 01:56:14;;;;;;;5.12;3.50;;;;;;;5.28;100.00;99400.88;1718179;83;21545;-81
2022/09/25 01:58:53;;;;;;;3.95;3.62;;;;;;;5.28;100.00;99405.20;1718193;82;21065;-79
2022/09/25 02:01:31;;;;;;;3.70;3.40;;;;;;;5.29;100.00;99406.95;1718137;83;20992;-79
2022/09/25 02:04:08;;;;;;;3.87;3.60;;;;;;;5.25;100.00;99401.37;1718061;83;22500;-81
2022/09/25 02:06:35;;;;;;;6.87;3.52;;;;;;;5.21;100.00;99404.02;1717579;82;21061;-80
2022/09/25 02:09:24;;;;;;;5.12;3.65;;;;;;;5.20;100.00;99402.28;1729993;82;21063;-78
2022/09/25 02:11:54;;;;;;;3.62;3.40;;;;;;;5.20;100.00;99402.28;1718391;82;21083;-81
2022/09/25 02:14:34;;;;;;;4.37;3.67;;;;;;;5.16;100.00;99404.52;1718307;82;21071;-79
2022/09/25 02:17:03;;;;;;;4.45;4.03;;;;;;;5.12;100.00;99409.34;1718172;83;23027;-78
2022/09/25 02:22:19;;;;;;;4.83;3.52;;;;;;;5.10;100.00;99404.60;1717979;83;21482;-78
2022/09/25 02:24:55;;;;;;;5.08;4.00;;;;;;;5.10;100.00;99407.21;1718107;83;21114;-79
2022/09/25 02:27:23;;;;;;;6.10;4.35;;;;;;;5.07;100.00;99405.95;1717915;83;21138;-79
2022/09/25 02:29:51;;;;;;;5.92;3.77;;;;;;;5.07;100.00;99412.91;1718278;82;21214;-79
2022/09/25 02:32:24;;;;;;;4.90;3.77;;;;;;;5.09;100.00;99405.92;1717837;82;21103;-78
2022/09/25 02:34:51;;;;;;;5.67;4.20;;;;;;;5.08;100.00;99406.80;1718023;83;21003;-78
2022/09/25 02:37:17;;;;;;;11.35;4.85;;;;;;;5.07;100.00;99407.25;1718287;83;21134;-79
2022/09/25 02:39:48;;;;;;;4.25;3.80;;;;;;;5.08;100.00;99408.10;1718270;83;21052;-79
2022/09/25 02:42:41;;;;;;;5.00;3.75;;;;;;;5.08;100.00;99408.98;1717825;82;21276;-80
2022/09/25 02:45:52;;;;;;;5.58;3.92;;;;;;;5.08;100.00;99410.29;1717997;83;21157;-79
2022/09/25 02:48:46;;;;;;;6.85;4.70;;;;;;;5.06;100.00;99405.55;1715165;82;21075;-81
2022/09/25 02:51:29;;;;;;;4.53;4.12;;;;;;;5.03;100.00;99412.10;1718279;83;21042;-81
2022/09/25 02:54:06;;;;;;;4.65;4.20;;;;;;;5.02;100.00;99401.23;1718020;83;21098;-82
2022/09/25 02:56:45;;;;;;;9.10;4.12;;;;;;;4.99;100.00;99402.16;1718637;82;21083;-80
2022/09/25 02:59:17;;;;;;;5.95;3.72;;;;;;;4.98;100.00;99408.70;1748858;82;21157;-80
2022/09/25 03:01:43;;;;;;;4.80;4.10;;;;;;;4.99;100.00;99399.97;1748916;82;21019;-80
2022/09/25 03:04:10;;;;;;;5.65;4.40;;;;;;;5.00;100.00;99410.83;1748886;82;20983;-80
2022/09/25 03:06:37;;;;;;;6.33;4.50;;;;;;;4.98;100.00;99404.33;1748976;82;21105;-80
2022/09/25 03:09:04;;;;;;;6.95;4.92;;;;;;;4.97;100.00;99403.05;1748831;82;21541;-80
2022/09/25 03:11:31;;;;;;;7.97;5.47;;;;;;;4.98;100.00;99404.33;1748963;82;21078;-79
2022/09/25 03:14:02;;;;;;;8.58;5.28;;;;;;;5.00;100.00;99400.41;1748812;82;21086;-80
2022/09/25 03:16:50;;;;;;;5.58;4.92;;;;;;;5.01;100.00;99395.62;1748729;82;21564;-80
2022/09/25 03:19:18;;;;;;;5.75;4.87;;;;;;;5.01;100.00;99396.92;1748738;82;21086;-81
2022/09/25 03:21:46;;;;;;;7.22;4.30;;;;;;;4.98;100.00;99405.64;1748713;82;21494;-80
2022/09/25 03:24:13;;;;;;;5.17;4.37;;;;;;;4.99;100.00;99405.19;1749043;82;21647;-81
2022/09/25 03:26:41;;;;;;;4.45;4.05;;;;;;;4.99;100.00;99411.28;1748881;82;21109;-79
2022/09/25 03:29:08;;;;;;;7.40;4.30;;;;;;;4.99;100.00;99420.83;1748993;82;21119;-79
2022/09/25 03:31:34;;;;;;;4.42;4.00;;;;;;;4.97;100.00;99414.33;1749077;82;21067;-80
2022/09/25 03:34:02;;;;;;;4.62;3.85;;;;;;;4.96;100.00;99421.75;1748860;82;21891;-80
2022/09/25 03:36:29;;;;;;;5.83;3.87;;;;;;;4.96;100.00;99418.26;1748913;82;21016;-80
2022/09/25 03:38:57;;;;;;;4.17;3.87;;;;;;;4.94;100.00;99416.13;1748740;82;21062;-79
2022/09/25 03:41:27;;;;;;;4.55;4.10;;;;;;;4.93;100.00;99420.94;1749097;82;21051;-81
2022/09/25 03:43:55;;;;;;;4.70;4.30;;;;;;;4.94;100.00;99420.03;1749152;82;21051;-80
2022/09/25 03:46:25;;;;;;;6.08;4.80;;;;;;;4.94;100.00;99423.94;1748741;82;21229;-79
2022/09/25 03:48:53;;;;;;;6.15;4.37;;;;;;;4.94;100.00;99422.64;1748969;82;21074;-82
2022/09/25 03:51:20;;;;;;;6.12;3.98;;;;;;;4.93;100.00;99424.84;1749061;81;21621;-80
2022/09/25 03:53:47;;;;;;;4.55;3.70;;;;;;;4.92;100.00;99424.41;1748829;81;22064;-78
2022/09/25 03:56:19;;;;;;;4.45;4.05;;;;;;;4.93;100.00;99426.15;1749236;82;21074;-81
2022/09/25 03:58:46;;;;;;;4.95;4.28;;;;;;;4.92;100.00;99434.84;1748819;82;21251;-80
2022/09/25 04:01:13;;;;;;;5.70;4.58;;;;;;;4.90;100.00;99434.00;1749017;81;21038;-79
2022/09/25 04:03:44;;;;;;;4.45;4.05;;;;;;;4.89;100.00;99436.17;1749125;82;21687;-81
2022/09/25 04:06:09;;;;;;;6.67;4.67;;;;;;;4.87;100.00;99436.64;1748659;82;21121;-78
2022/09/25 04:08:38;;;;;;;6.05;4.50;;;;;;;4.86;100.00;99436.21;1749085;82;21019;-78
2022/09/25 04:11:06;;;;;;;6.87;4.80;;;;;;;4.84;100.00;99437.11;1748940;82;21232;-81
2022/09/25 04:13:35;;;;;;;5.97;4.83;;;;;;;4.87;100.00;99435.34;1748704;82;21070;-81
2022/09/25 04:16:03;;;;;;;6.62;4.17;;;;;;;4.88;100.00;99438.38;1749123;82;21493;-81
2022/09/25 04:18:31;;;;;;;9.80;4.45;;;;;;;4.92;100.00;99438.75;1748830;82;21047;-80
2022/09/25 04:20:59;;;;;;;4.45;4.05;;;;;;;4.94;100.00;99443.50;1748959;81;21103;-79
2022/09/25 04:23:26;;;;;;;4.90;4.17;;;;;;;4.98;100.00;99440.84;1749095;82;21509;-80
2022/09/25 04:25:53;;;;;;;4.90;4.40;;;;;;;5.01;100.00;99442.55;1748781;82;21476;-80
2022/09/25 04:28:21;;;;;;;8.10;6.00;;;;;;;5.04;100.00;99441.19;1749122;82;21107;-80
2022/09/25 04:30:48;;;;;;;6.67;4.47;;;;;;;5.05;100.00;99444.23;1748727;82;21054;-80
2022/09/25 04:36:01;;;;;;;9.20;4.47;;;;;;;5.10;100.00;99443.72;1748848;81;21474;-79
2022/09/25 04:38:30;;;;;;;5.80;4.50;;;;;;;5.14;100.00;99446.70;1748963;81;21097;-81
2022/09/25 04:40:56;;;;;;;6.53;4.45;;;;;;;5.16;100.00;99444.95;1748749;81;20999;-80
2022/09/25 04:43:23;;;;;;;5.30;4.80;;;;;;;5.19;100.00;99442.31;1748881;81;21070;-79
2022/09/25 04:45:50;;;;;;;5.12;4.20;;;;;;;5.23;100.00;99444.42;1749129;81;21098;-80
2022/09/25 04:48:17;;;;;;;5.15;4.50;;;;;;;5.29;100.00;99436.94;1748882;81;21182;-80
2022/09/25 04:50:48;;;;;;;6.70;4.72;;;;;;;5.32;100.00;99442.13;1748880;81;21066;-80
2022/09/25 04:53:15;;;;;;;6.70;4.92;;;;;;;5.37;100.00;99444.22;1749043;81;21169;-80
2022/09/25 04:55:41;;;;;;;7.90;4.75;;;;;;;5.44;100.00;99461.50;1748528;81;20996;-79
2022/09/25 04:58:10;;;;;;;8.48;4.10;;;;;;;5.48;100.00;99456.67;1749940;81;21094;-80
2022/09/25 05:00:39;;;;;;;4.67;4.20;;;;;;;5.54;100.00;99452.65;1750928;81;22165;-80
2022/09/25 05:03:06;;;;;;;6.42;4.30;;;;;;;5.59;100.00;99449.52;1750480;81;21070;-80
2022/09/25 05:05:34;;;;;;;5.67;4.42;;;;;;;5.66;100.00;99465.10;1717023;82;21669;-80
2022/09/25 05:08:01;;;;;;;7.65;4.15;;;;;;;5.72;100.00;99457.19;1717260;83;21122;-79
2022/09/25 05:10:31;;;;;;;5.83;4.30;;;;;;;5.79;100.00;99456.64;1717076;82;21066;-78
2022/09/25 05:13:01;;;;;;;5.47;4.72;;;;;;;5.85;100.00;99462.63;1717417;82;21115;-80
2022/09/25 05:15:30;;;;;;;7.37;5.42;;;;;;;5.90;100.00;99458.61;1716976;83;21115;-82
2022/09/25 05:18:04;;;;;;;9.68;5.42;;;;;;;5.98;100.00;99462.45;1717525;83;21106;-81
2022/09/25 05:20:30;;;;;;;9.90;6.10;;;;;;;6.06;100.00;99464.49;1716016;82;21071;-79
2022/09/25 05:22:57;;;;;;;7.67;5.90;;;;;;;6.13;99.85;99468.72;1717516;83;21051;-80
2022/09/25 05:25:25;;;;;;;6.90;5.50;;;;;;;6.20;99.87;99466.86;1717137;82;21488;-79
2022/09/25 05:27:54;;;;;;;20.43;8.20;;;;;;;6.26;99.34;99473.30;1717426;82;21692;-80
2022/09/25 05:30:22;;;;;;;10.48;6.17;;;;;;;6.33;99.07;99478.81;1717357;83;21008;-79
2022/09/25 05:32:49;;;;;;;9.73;6.62;;;;;;;6.41;98.56;99474.31;1717491;82;21574;-80
2022/09/25 05:35:19;;;;;;;10.08;4.83;;;;;;;6.47;98.12;99469.41;1717100;83;21126;-80
2022/09/25 05:37:45;;;;;;;13.35;5.55;;;;;;;6.52;97.65;99470.19;1717212;83;21482;-79
2022/09/25 05:40:14;;;;;;;14.95;8.03;;;;;;;6.58;97.54;99474.00;1717072;83;21079;-80
2022/09/25 05:42:43;;;;;;;11.57;6.40;;;;;;;6.65;96.82;99469.06;1717237;83;21150;-80
2022/09/25 05:45:14;;;;;;;12.03;5.80;;;;;;;6.73;96.62;99469.38;1717006;83;20984;-79
2022/09/25 05:47:40;;;;;;;12.10;6.87;;;;;;;6.78;96.23;99461.00;1716425;82;21008;-79
2022/09/25 05:50:10;;;;;;;6.92;4.72;;;;;;;6.85;96.45;99467.36;1717365;83;21761;-80
2022/09/25 05:52:37;;;;;;;12.13;6.60;;;;;;;6.98;96.60;99469.29;1716840;83;21075;-79
2022/09/25 05:55:05;;;;;;;10.98;4.42;;;;;;;7.11;95.98;99472.95;1717332;83;21114;-80
2022/09/25 05:57:34;;;;;;;10.15;5.25;;;;;;;7.19;95.05;99471.88;1716754;83;21134;-81
2022/09/25 06:00:03;;;;;;;4.80;4.33;;;;;;;7.25;94.44;99463.91;1712363;83;21064;-79
2022/09/25 06:02:32;;;;;;;6.80;4.80;;;;;;;7.37;94.86;99466.70;1710784;82;22222;-81
2022/09/25 06:04:59;;;;;;;6.53;4.72;;;;;;;7.49;93.72;99472.11;1714100;83;21506;-82
2022/09/25 06:07:26;;;;;;;5.70;4.60;;;;;;;7.58;92.71;99472.34;1712120;83;21695;-81
2022/09/25 06:09:52;;;;;;;7.85;4.30;;;;;;;7.65;92.56;99473.95;1712194;82;21524;-79
2022/09/25 06:12:22;;;;;;;6.15;4.28;;;;;;;7.77;92.65;99474.95;1712032;82;22001;-80
2022/09/25 06:14:50;;;;;;;5.97;4.53;;;;;;;7.89;92.68;99475.56;1711131;83;21154;-81
2022/09/25 06:17:16;;;;;;;7.45;4.10;;;;;;;8.00;92.54;99469.59;1715122;83;20981;-77
2022/09/25 06:19:43;;;;;;;5.95;4.25;;;;;;;8.10;91.76;99472.42;1712375;82;21083;-80
2022/09/25 06:22:09;;;;;;;6.58;4.50;;;;;;;8.22;91.48;99478.22;1712346;83;21021;-79
2022/09/25 06:24:36;;;;;;;5.70;4.17;;;;;;;8.31;90.39;99480.63;1712570;83;21139;-80
2022/09/25 06:27:02;;;;;;;6.22;4.03;;;;;;;8.37;89.66;99483.06;1713608;83;21758;-81
2022/09/25 06:29:29;;;;;;;7.00;4.03;;;;;;;8.42;89.20;99485.11;1726260;82;20992;-79
2022/09/25 06:31:56;;;;;;;13.70;8.63;;;;;;;8.50;89.68;99488.43;1715193;82;21146;-80
2022/09/25 06:34:22;;;;;;;6.70;5.28;;;;;;;8.61;89.07;99482.03;1715231;83;21048;-79
2022/09/25 06:36:49;;;;;;;5.28;4.20;;;;;;;8.71;88.53;99492.25;1715012;83;21150;-79
2022/09/25 06:39:15;;;;;;;4.67;4.17;;;;;;;8.81;88.17;99490.67;1715408;83;21059;-80
2022/09/25 06:41:42;;;;;;;4.30;3.90;;;;;;;8.93;87.22;99491.66;1711869;83;21114;-80
2022/09/25 06:44:11;;;;;;;4.85;3.92;;;;;;;9.06;87.20;99490.84;1712006;83;21093;-81
2022/09/25 06:46:38;;;;;;;6.17;4.33;;;;;;;9.17;86.66;99490.08;1711073;83;21326;-81
2022/09/25 06:49:04;;;;;;;4.47;3.92;;;;;;;9.27;86.03;99490.22;1711739;83;20984;-81
2022/09/25 06:51:33;;;;;;;6.97;3.80;;;;;;;9.34;85.57;99487.42;1714931;83;21139;-80
2022/09/25 06:54:00;;;;;;;5.35;3.67;;;;;;;9.43;85.26;99493.26;1714903;83;21480;-79
2022/09/25 06:56:26;;;;;;;5.17;4.67;;;;;;;9.55;84.98;99479.32;1710967;83;21653;-80
2022/09/25 06:58:53;;;;;;;6.90;4.83;;;;;;;9.66;83.79;99481.16;1713483;83;21591;-81
2022/09/25 07:01:20;;;;;;;7.25;4.67;;;;;;;9.74;83.33;99484.41;1713479;83;21558;-81
2022/09/25 07:03:48;;;;;;;5.80;4.40;;;;;;;9.80;82.58;99472.84;1750827;81;22359;-81
2022/09/25 07:06:18;;;;;;;7.03;4.78;;;;;;;9.88;82.78;99485.28;1751169;81;21039;-80
2022/09/25 07:08:46;;;;;;;6.28;4.53;;;;;;;10.00;82.84;99484.91;1751022;81;21055;-81
2022/09/25 07:11:19;;;;;;;8.35;5.50;;;;;;;10.13;83.11;99475.28;1713474;83;21515;-81
2022/09/25 07:13:45;;;;;;;12.55;6.22;;;;;;;10.30;83.16;99475.56;1714000;83;21562;-82
2022/09/25 07:16:15;;;;;;;6.40;5.50;;;;;;;10.49;81.81;99489.42;1751515;81;21474;-80
2022/09/25 07:18:43;;;;;;;4.70;4.22;;;;;;;10.62;80.44;99480.66;1713014;83;21190;-82
2022/09/25 07:21:14;;;;;;;5.78;4.47;;;;;;;10.72;78.93;99484.22;1715512;82;21558;-80
2022/09/25 07:23:42;;;;;;;5.25;4.50;;;;;;;10.82;78.23;99478.63;1714183;83;21356;-80
2022/09/25 07:26:21;;;;;;;6.42;4.20;;;;;;;10.92;79.66;99476.06;1712783;82;21185;-80
2022/09/25 07:28:45;;;;;;;5.97;4.10;;;;;;;11.05;78.41;99476.02;1751319;80;22363;-80
2022/09/25 07:31:20;;;;;;;5.15;4.00;;;;;;;11.18;77.96;99469.84;1713762;83;21051;-80
2022/09/25 07:33:46;;;;;;;4.62;3.77;;;;;;;11.30;77.01;99479.05;1714533;83;21016;-80
2022/09/25 07:36:14;;;;;;;4.30;3.90;;;;;;;11.40;75.01;99473.83;1751312;81;21129;-80
2022/09/25 07:38:41;;;;;;;4.70;3.25;;;;;;;11.46;73.27;99472.25;1750665;81;20992;-82
2022/09/25 07:41:10;;;;;;;5.55;3.60;;;;;;;11.49;72.82;99468.19;1714877;83;21221;-79
2022/09/25 07:43:37;;;;;;;4.95;3.90;;;;;;;11.55;73.04;99465.78;1750799;81;21035;-80
2022/09/25 07:46:05;;;;;;;4.12;3.35;;;;;;;11.63;72.75;99473.37;1750985;81;21058;-81
2022/09/25 07:48:32;;;;;;;5.20;2.92;;;;;;;11.70;72.27;99461.66;1751063;81;21063;-80
2022/09/25 07:51:04;;;;;;;6.15;3.02;;;;;;;11.77;70.60;99467.10;1750069;81;21008;-81
2022/09/25 07:53:31;;;;;;;3.50;3.20;;;;;;;11.81;70.44;99466.05;1749011;81;21157;-78
2022/09/25 07:55:58;;;;;;;3.08;2.83;;;;;;;11.83;68.91;99468.16;1751381;81;21142;-79
2022/09/25 07:58:25;;;;;;;8.80;2.92;;;;;;;11.87;70.04;99472.40;1745517;81;21074;-77
2022/09/25 08:00:53;;;;;;;6.58;3.85;;;;;;;11.96;70.16;99463.75;1712837;83;21075;-80
2022/09/25 08:03:20;;;;;;;5.12;2.40;;;;;;;12.10;69.65;99469.30;1712598;83;21174;-81
2022/09/25 08:05:48;;;;;;;2.85;2.50;;;;;;;12.21;67.44;99464.91;1712460;83;21330;-78
2022/09/25 08:08:14;;;;;;;3.67;2.50;;;;;;;12.28;66.79;99464.19;1724439;83;21151;-79
2022/09/25 08:10:41;;;;;;;2.45;2.30;;;;;;;12.34;66.95;99462.58;1712446;83;21056;-79
2022/09/25 08:13:08;;;;;;;3.02;2.70;;;;;;;12.40;65.96;99463.66;1713114;83;21001;-80
2022/09/25 08:15:35;;;;;;;3.35;2.45;;;;;;;12.45;65.63;99462.98;1712601;83;21218;-80
2022/09/25 08:18:02;;;;;;;2.52;2.33;;;;;;;12.48;66.57;99464.66;1713066;83;21102;-78
2022/09/25 08:20:28;;;;;;;2.83;2.50;;;;;;;12.52;64.63;99464.43;1712592;83;21083;-79
2022/09/25 08:22:56;;;;;;;4.67;2.52;;;;;;;12.56;65.30;99469.98;1712558;83;21056;-82
2022/09/25 08:25:22;;;;;;;2.85;2.20;;;;;;;12.64;64.36;99475.80;1712793;83;21606;-80
2022/09/25 08:27:50;;;;;;;2.60;2.40;;;;;;;12.71;65.12;99466.27;1712549;83;21220;-80
2022/09/25 08:30:17;;;;;;;2.60;2.30;;;;;;;12.77;64.41;99464.68;1712886;83;21463;-79
2022/09/25 08:32:44;;;;;;;2.60;2.40;;;;;;;12.81;63.70;99471.09;1712546;83;21573;-79
2022/09/25 08:35:10;;;;;;;2.33;2.17;;;;;;;12.78;62.98;99467.73;1712827;83;21012;-78
2022/09/25 08:37:40;;;;;;;2.30;2.20;;;;;;;12.81;63.84;99464.95;1712535;83;21063;-77
2022/09/25 08:40:25;;;;;;;2.40;2.20;;;;;;;12.90;64.03;99461.04;1713168;83;21137;-79
2022/09/25 08:42:52;;;;;;;2.90;2.58;;;;;;;12.99;64.49;99448.28;1712700;83;21237;-79
2022/09/25 08:51:11;;;;;;;3.50;2.55;;;;;;;13.18;62.73;99447.44;1712990;83;21495;-79
2022/09/25 08:53:38;;;;;;;2.55;2.15;;;;;;;13.31;62.44;99449.87;1712642;83;21103;-80
2022/09/25 08:56:14;;;;;;;3.25;2.00;;;;;;;13.46;62.68;99454.93;1712836;83;21064;-80
2022/09/25 08:59:03;;;;;;;2.65;1.70;;;;;;;13.61;61.57;99446.73;1712999;83;21036;-78
2022/09/25 09:01:46;;;;;;;1.82;1.72;;;;;;;13.78;57.87;99441.10;1718087;83;21035;-80
2022/09/25 09:04:18;;;;;;;1.92;1.80;;;;;;;13.86;57.98;99443.75;1717851;82;21134;-80
2022/09/25 09:06:47;;;;;;;1.70;1.55;;;;;;;13.98;56.54;99432.19;1718235;83;21016;-80
2022/09/25 09:09:43;;;;;;;1.85;1.70;;;;;;;14.05;56.21;99440.19;1718213;82;21249;-78
2022/09/25 09:12:14;;;;;;;2.60;2.40;;;;;;;14.04;54.63;99440.67;1718249;83;21440;-80
2022/09/25 09:14:48;;;;;;;1.87;1.77;;;;;;;13.87;56.02;99432.70;1717952;83;21087;-79
2022/09/25 09:17:24;;;;;;;3.30;2.05;;;;;;;13.81;54.91;99427.73;1718200;82;21522;-81
2022/09/25 09:19:55;;;;;;;1.70;1.60;;;;;;;13.77;55.72;99434.09;1717995;83;21012;-79
2022/09/25 09:22:29;;;;;;;2.45;1.60;;;;;;;13.75;56.16;99431.52;1718960;82;21209;-79
2022/09/25 09:25:08;;;;;;;1.55;1.45;;;;;;;13.81;55.85;99425.09;1718215;82;21000;-77
2022/09/25 09:28:00;;;;;;;1.70;1.60;;;;;;;13.87;57.20;99417.70;1717880;83;21055;-80
2022/09/25 09:30:57;;;;;;;2.08;1.50;;;;;;;14.02;57.02;99421.37;1718019;82;21083;-78
2022/09/25 09:33:40;;;;;;;3.30;1.80;;;;;;;14.20;53.77;99426.19;1718053;82;21506;-80
2022/09/25 09:36:36;;;;;;;1.70;1.60;;;;;;;14.25;54.05;99428.13;1718220;83;21146;-80
2022/09/25 09:39:27;;;;;;;1.50;1.40;;;;;;;14.26;54.46;99417.94;1717786;83;21059;-78
2022/09/25 09:42:25;;;;;;;1.50;1.40;;;;;;;14.38;56.42;99416.92;1718377;83;21580;-79
2022/09/25 09:45:21;;;;;;;2.15;1.30;;;;;;;14.62;54.99;99406.86;1718031;83;21044;-80
2022/09/25 09:48:17;;;;;;;1.47;1.37;;;;;;;14.85;52.48;99418.41;1715591;82;21598;-79
2022/09/25 09:50:50;;;;;;;2.45;1.77;;;;;;;14.81;50.37;99421.30;1718225;83;21157;-79
2022/09/25 09:53:38;;;;;;;1.50;1.40;;;;;;;14.60;51.36;99414.04;1717915;83;21469;-79
2022/09/25 09:56:13;;;;;;;1.82;1.67;;;;;;;14.58;51.98;99425.16;1717896;83;21142;-78
2022/09/25 09:58:54;;;;;;;;;;;;;;;14.61;51.00;99425.88;1720655;83;21110;-81
2022/09/25 10:01:24;;;;;;;2.10;2.00;;;;;;;14.69;52.37;99418.83;1718042;83;20262;-79
2022/09/25 10:04:17;;;;;;;3.47;2.87;;;;;;;14.81;51.54;99412.91;1717938;82;21229;-80
2022/09/25 10:07:11;;;;;;;2.75;2.55;;;;;;;14.91;51.80;99397.82;1719642;81;21001;-83
2022/09/25 10:09:38;;;;;;;1.50;1.40;;;;;;;15.02;49.99;99415.31;1718039;83;21106;-79
2022/09/25 10:12:09;;;;;;;1.95;1.75;;;;;;;15.01;48.92;99401.67;1718162;82;21061;-79
2022/09/25 10:14:38;;;;;;;2.37;1.60;;;;;;;14.91;47.42;99405.77;1717697;82;21099;-82
2022/09/25 10:17:04;;;;;;;1.57;1.47;;;;;;;14.80;48.95;99405.87;1718229;83;21123;-80
2022/09/25 10:19:40;;;;;;;3.27;1.70;;;;;;;14.72;47.95;99408.08;1717719;83;21119;-80
2022/09/25 10:22:15;;;;;;;1.40;1.30;;;;;;;14.66;48.72;99411.08;1708798;82;21605;-79
2022/09/25 10:24:57;;;;;;;1.30;1.20;;;;;;;14.61;48.69;99411.80;1717963;83;21553;-79
2022/09/25 10:27:46;;;;;;;3.55;1.92;;;;;;;14.53;48.44;99398.06;1718415;83;21933;-79
2022/09/25 10:30:19;;;;;;;3.77;2.50;;;;;;;14.43;49.86;99415.74;1717891;83;21328;-79
2022/09/25 10:33:03;;;;;;;1.70;1.60;;;;;;;14.44;50.97;99398.94;1718145;83;21149;-80
2022/09/25 10:35:41;;;;;;;2.62;1.27;;;;;;;14.61;51.10;99395.42;1718098;83;21152;-80
2022/09/25 10:38:46;;;;;;;1.35;1.25;;;;;;;14.82;50.59;99396.05;1718161;82;21075;-79
2022/09/25 10:41:18;;;;;;;1.55;1.32;;;;;;;15.08;50.69;99379.22;1717896;82;21042;-78
2022/09/25 10:43:58;;;;;;;1.30;1.20;;;;;;;15.33;50.02;99391.08;1729830;82;22162;-79
2022/09/25 10:52:10;;;;;;;4.35;1.25;;;;;;;15.11;47.06;99386.98;1717827;83;21131;-79
2022/09/25 10:54:36;;;;;;;2.05;1.95;;;;;;;14.88;47.77;99380.77;1718089;83;21070;-80
2022/09/25 10:57:17;;;;;;;3.72;2.58;;;;;;;14.72;48.39;99390.87;1718073;83;21233;-79
2022/09/25 10:59:49;;;;;;;1.60;1.50;;;;;;;14.57;49.11;99383.72;1710777;80;21082;-79
2022/09/25 11:02:37;;;;;;;2.33;1.82;;;;;;;14.54;49.07;99383.43;1753496;81;21046;-79
2022/09/25 11:05:07;;;;;;;1.75;1.60;;;;;;;14.60;49.15;99382.27;1714461;83;21115;-80
2022/09/25 11:07:35;;;;;;;3.05;1.65;;;;;;;14.67;49.38;99369.92;1714281;81;21067;-80
2022/09/25 11:10:02;;;;;;;2.25;1.22;;;;;;;14.71;48.12;99379.91;1754062;81;21819;-79
2022/09/25 11:12:31;;;;;;;1.77;1.20;;;;;;;14.70;48.65;99378.19;1676493;83;21618;-79
2022/09/25 11:15:04;;;;;;;1.00;1.00;;;;;;;14.72;48.54;99371.01;1713261;83;21573;-79
2022/09/25 11:17:41;;;;;;;2.80;1.35;;;;;;;14.91;48.83;99359.41;1713848;83;21060;-78
2022/09/25 11:20:28;;;;;;;2.22;1.65;;;;;;;15.11;49.68;99353.85;1712775;83;21067;-79
2022/09/25 11:23:09;;;;;;;1.67;1.55;;;;;;;15.40;49.20;99362.83;1712919;83;22276;-80
2022/09/25 11:25:54;;;;;;;1.10;1.10;;;;;;;15.61;46.90;99362.05;1714026;83;21527;-79
2022/09/25 11:28:29;;;;;;;1.67;1.40;;;;;;;15.69;45.84;99358.97;1712372;83;21075;-81
2022/09/25 11:31:10;;;;;;;3.77;1.50;;;;;;;15.72;45.29;99359.27;1712830;83;21068;-81
2022/09/25 11:33:49;;;;;;;4.62;1.50;;;;;;;15.71;46.17;99365.02;1712656;83;21533;-81
2022/09/25 11:36:21;;;;;;;1.50;1.40;;;;;;;15.74;46.51;99354.72;1754446;81;21114;-78
2022/09/25 11:41:50;;;;;;;4.12;1.65;;;;;;;15.65;46.26;99356.57;1754266;81;21130;-79
2022/09/25 11:44:37;;;;;;;5.03;1.67;;;;;;;15.42;46.40;99356.11;1754087;81;21054;-80
2022/09/25 11:47:24;;;;;;;1.67;1.57;;;;;;;15.22;46.72;99350.14;1714423;83;21091;-79
2022/09/25 11:49:52;;;;;;;3.58;2.20;;;;;;;15.11;47.07;99353.85;1712337;82;21217;-79
2022/09/25 11:52:56;;;;;;;2.90;2.10;;;;;;;15.01;48.18;99348.23;1713851;83;21044;-78
2022/09/25 11:55:48;;;;;;;1.57;1.47;;;;;;;14.91;48.37;99356.76;1713235;83;21079;-79
2022/09/25 11:58:53;;;;;;;2.83;1.70;;;;;;;14.74;48.00;99353.23;1712665;83;21538;-79
2022/09/25 12:01:28;;;;;;;2.33;1.40;;;;;;;14.70;49.03;99358.33;1712751;83;21684;-80
2022/09/25 12:04:24;;;;;;;1.60;1.50;;;;;;;14.86;48.13;99351.26;1712897;83;21135;-79
2022/09/25 12:07:13;;;;;;;5.17;2.00;;;;;;;14.95;48.49;99354.34;1711418;82;21491;-79
2022/09/25 12:10:03;;;;;;;1.72;1.60;;;;;;;14.97;48.57;99357.75;1712483;83;21013;-78
2022/09/25 12:13:00;;;;;;;3.70;1.57;;;;;;;14.94;48.68;99353.95;1712178;83;21636;-78
2022/09/25 12:15:50;;;;;;;1.82;1.72;;;;;;;14.86;49.17;99361.86;1706783;82;21078;-78
2022/09/25 12:18:45;;;;;;;2.60;1.62;;;;;;;14.74;49.14;99357.20;1714926;83;21545;-78
2022/09/25 12:21:34;;;;;;;2.10;2.00;;;;;;;14.65;49.34;99351.09;1714650;83;21075;-80
2022/09/25 12:24:09;;;;;;;3.47;2.33;;;;;;;14.60;49.69;99358.44;1691880;83;21095;-78
2022/09/25 12:26:50;;;;;;;;;;;;;;;14.59;50.64;99352.74;1715657;82;21007;-77